sensor_id;sensor_type;location;lat;lon;timestamp;pressure;altitude;pressure_sealevel;temperature;humidity
69982;BME280;57319;56.274;43.980;2024-01-25T00:00:24;99006.88;;;-4.70;nan
69982;BME280;57319;56.274;43.980;2024-01-25T00:02:50;99009.81;;;-4.82;nan
69982;BME280;57319;56.274;43.980;2024-01-25T00:05:16;99014.75;;;-4.84;nan
69982;BME280;57319;56.274;43.980;2024-01-25T00:07:48;99005.81;;;-5.00;nan
69982;BME280;57319;56.274;43.980;2024-01-25T00:10:16;99008.50;;;-4.72;nan
69982;BME280;57319;56.274;43.980;2024-01-25T00:12:42;98998.66;;;-4.66;nan
69982;BME280;57319;56.274;43.980;2024-01-25T00:15:09;99001.13;;;-4.68;nan
69982;BME280;57319;56.274;43.980;2024-01-25T00:17:35;99006.44;;;-5.05;nan
69982;BME280;57319;56.274;43.980;2024-01-25T00:20:01;99006.03;;;-4.94;nan
69982;BME280;57319;56.274;43.980;2024-01-25T00:22:27;99000.69;;;-5.03;nan
69982;BME280;57319;56.274;43.980;2024-01-25T00:24:53;98996.88;;;-4.69;nan
69982;BME280;57319;56.274;43.980;2024-01-25T00:27:19;98995.06;;;-4.73;nan
69982;BME280;57319;56.274;43.980;2024-01-25T00:29:44;98994.31;;;-4.70;nan
69982;BME280;57319;56.274;43.980;2024-01-25T00:32:10;98998.09;;;-4.82;nan
69982;BME280;57319;56.274;43.980;2024-01-25T00:34:36;98990.44;;;-4.62;nan
69982;BME280;57319;56.274;43.980;2024-01-25T00:37:02;98993.28;;;-4.53;nan
69982;BME280;57319;56.274;43.980;2024-01-25T00:39:28;98990.03;;;-4.50;nan
69982;BME280;57319;56.274;43.980;2024-01-25T00:42:03;98990.22;;;-4.44;nan
69982;BME280;57319;56.274;43.980;2024-01-25T00:44:31;98992.72;;;-4.44;nan
69982;BME280;57319;56.274;43.980;2024-01-25T00:46:57;98991.03;;;-4.45;nan
69982;BME280;57319;56.274;43.980;2024-01-25T00:49:23;98991.50;;;-4.55;nan
69982;BME280;57319;56.274;43.980;2024-01-25T00:51:50;98993.81;;;-4.62;nan
69982;BME280;57319;56.274;43.980;2024-01-25T00:54:20;98989.41;;;-4.67;nan
69982;BME280;57319;56.274;43.980;2024-01-25T00:56:46;98983.38;;;-4.72;nan
69982;BME280;57319;56.274;43.980;2024-01-25T00:59:13;98989.53;;;-4.64;nan
69982;BME280;57319;56.274;43.980;2024-01-25T01:01:40;98995.63;;;-4.57;nan
69982;BME280;57319;56.274;43.980;2024-01-25T01:04:08;98983.28;;;-4.51;nan
69982;BME280;57319;56.274;43.980;2024-01-25T01:06:34;98986.03;;;-4.45;nan
69982;BME280;57319;56.274;43.980;2024-01-25T01:08:59;98980.81;;;-4.50;nan
69982;BME280;57319;56.274;43.980;2024-01-25T01:11:25;98981.69;;;-4.49;nan
69982;BME280;57319;56.274;43.980;2024-01-25T01:13:51;98980.13;;;-4.46;nan
69982;BME280;57319;56.274;43.980;2024-01-25T01:16:16;98973.47;;;-4.45;nan
69982;BME280;57319;56.274;43.980;2024-01-25T01:18:42;98978.31;;;-4.50;nan
69982;BME280;57319;56.274;43.980;2024-01-25T01:21:08;98975.34;;;-4.62;nan
69982;BME280;57319;56.274;43.980;2024-01-25T01:23:33;98980.97;;;-4.69;nan
69982;BME280;57319;56.274;43.980;2024-01-25T01:25:59;98975.63;;;-4.54;nan
69982;BME280;57319;56.274;43.980;2024-01-25T01:28:24;98968.16;;;-4.53;nan
69982;BME280;57319;56.274;43.980;2024-01-25T01:30:52;98973.06;;;-4.80;nan
69982;BME280;57319;56.274;43.980;2024-01-25T01:33:17;98978.31;;;-4.74;nan
69982;BME280;57319;56.274;43.980;2024-01-25T01:35:43;98969.94;;;-4.50;nan
69982;BME280;57319;56.274;43.980;2024-01-25T01:38:09;98969.94;;;-4.73;nan
69982;BME280;57319;56.274;43.980;2024-01-25T01:40:34;98969.53;;;-4.61;nan
69982;BME280;57319;56.274;43.980;2024-01-25T01:43:01;98970.38;;;-4.61;nan
69982;BME280;57319;56.274;43.980;2024-01-25T01:45:27;98971.66;;;-4.72;nan
69982;BME280;57319;56.274;43.980;2024-01-25T01:47:55;98966.94;;;-4.64;nan
69982;BME280;57319;56.274;43.980;2024-01-25T01:50:21;98968.91;;;-4.55;nan
69982;BME280;57319;56.274;43.980;2024-01-25T01:52:48;98964.91;;;-4.50;nan
69982;BME280;57319;56.274;43.980;2024-01-25T01:55:15;98969.06;;;-4.51;nan
69982;BME280;57319;56.274;43.980;2024-01-25T01:57:41;98962.50;;;-4.47;nan
69982;BME280;57319;56.274;43.980;2024-01-25T02:00:09;98966.66;;;-4.48;nan
69982;BME280;57319;56.274;43.980;2024-01-25T02:02:35;98959.13;;;-4.48;nan
69982;BME280;57319;56.274;43.980;2024-01-25T02:05:01;98975.47;;;-4.59;nan
69982;BME280;57319;56.274;43.980;2024-01-25T02:07:30;98968.06;;;-4.56;nan
69982;BME280;57319;56.274;43.980;2024-01-25T02:09:56;98962.16;;;-4.56;nan
69982;BME280;57319;56.274;43.980;2024-01-25T02:12:21;98961.50;;;-4.51;nan
69982;BME280;57319;56.274;43.980;2024-01-25T02:14:47;98976.69;;;-4.72;nan
69982;BME280;57319;56.274;43.980;2024-01-25T02:17:13;98964.53;;;-4.61;nan
69982;BME280;57319;56.274;43.980;2024-01-25T02:19:39;98970.81;;;-4.48;nan
69982;BME280;57319;56.274;43.980;2024-01-25T02:22:05;98972.34;;;-4.53;nan
69982;BME280;57319;56.274;43.980;2024-01-25T02:24:31;98968.75;;;-4.60;nan
69982;BME280;57319;56.274;43.980;2024-01-25T02:26:57;98977.13;;;-4.60;nan
69982;BME280;57319;56.274;43.980;2024-01-25T02:29:22;98973.44;;;-4.69;nan
69982;BME280;57319;56.274;43.980;2024-01-25T02:31:48;98973.78;;;-4.60;nan
69982;BME280;57319;56.274;43.980;2024-01-25T02:34:14;98970.97;;;-4.68;nan
69982;BME280;57319;56.274;43.980;2024-01-25T02:36:39;98967.69;;;-4.67;nan
69982;BME280;57319;56.274;43.980;2024-01-25T02:39:05;98970.56;;;-4.56;nan
69982;BME280;57319;56.274;43.980;2024-01-25T02:41:31;98963.16;;;-4.75;nan
69982;BME280;57319;56.274;43.980;2024-01-25T02:43:57;98966.44;;;-4.78;nan
69982;BME280;57319;56.274;43.980;2024-01-25T02:46:23;98963.00;;;-4.57;nan
69982;BME280;57319;56.274;43.980;2024-01-25T02:48:49;98967.97;;;-4.82;nan
69982;BME280;57319;56.274;43.980;2024-01-25T02:51:14;98971.97;;;-4.87;nan
69982;BME280;57319;56.274;43.980;2024-01-25T02:53:40;98970.94;;;-4.69;nan
69982;BME280;57319;56.274;43.980;2024-01-25T02:56:06;98971.38;;;-4.57;nan
69982;BME280;57319;56.274;43.980;2024-01-25T02:58:33;98968.63;;;-4.63;nan
69982;BME280;57319;56.274;43.980;2024-01-25T03:00:58;98978.75;;;-4.62;nan
69982;BME280;57319;56.274;43.980;2024-01-25T03:03:24;98975.00;;;-4.49;nan
69982;BME280;57319;56.274;43.980;2024-01-25T03:05:53;98977.47;;;-4.50;nan
69982;BME280;57319;56.274;43.980;2024-01-25T03:08:19;98968.59;;;-4.40;nan
69982;BME280;57319;56.274;43.980;2024-01-25T03:10:46;98973.94;;;-4.55;nan
69982;BME280;57319;56.274;43.980;2024-01-25T03:13:15;98973.47;;;-4.45;nan
69982;BME280;57319;56.274;43.980;2024-01-25T03:15:42;98976.34;;;-4.58;nan
69982;BME280;57319;56.274;43.980;2024-01-25T03:18:09;98973.34;;;-4.72;nan
69982;BME280;57319;56.274;43.980;2024-01-25T03:20:35;98973.00;;;-4.82;nan
69982;BME280;57319;56.274;43.980;2024-01-25T03:23:00;98974.53;;;-4.85;nan
69982;BME280;57319;56.274;43.980;2024-01-25T03:25:26;98976.78;;;-4.69;nan
69982;BME280;57319;56.274;43.980;2024-01-25T03:27:52;98975.41;;;-5.07;nan
69982;BME280;57319;56.274;43.980;2024-01-25T03:30:17;98980.03;;;-4.96;nan
69982;BME280;57319;56.274;43.980;2024-01-25T03:32:46;98966.75;;;-4.69;nan
69982;BME280;57319;56.274;43.980;2024-01-25T03:35:12;98972.41;;;-4.74;nan
69982;BME280;57319;56.274;43.980;2024-01-25T03:37:37;98970.69;;;-4.75;nan
69982;BME280;57319;56.274;43.980;2024-01-25T03:40:03;98966.94;;;-4.64;nan
69982;BME280;57319;56.274;43.980;2024-01-25T03:42:30;98955.53;;;-4.54;nan
69982;BME280;57319;56.274;43.980;2024-01-25T03:44:56;98950.75;;;-4.72;nan
69982;BME280;57319;56.274;43.980;2024-01-25T03:47:21;98951.03;;;-4.87;nan
69982;BME280;57319;56.274;43.980;2024-01-25T03:49:47;98951.69;;;-4.69;nan
69982;BME280;57319;56.274;43.980;2024-01-25T03:52:13;98950.75;;;-4.72;nan
69982;BME280;57319;56.274;43.980;2024-01-25T03:54:38;98938.56;;;-4.62;nan
69982;BME280;57319;56.274;43.980;2024-01-25T03:57:04;98938.63;;;-4.60;nan
69982;BME280;57319;56.274;43.980;2024-01-25T03:59:30;98945.50;;;-4.54;nan
69982;BME280;57319;56.274;43.980;2024-01-25T04:01:56;98950.63;;;-4.51;nan
69982;BME280;57319;56.274;43.980;2024-01-25T04:04:22;98944.00;;;-4.49;nan
69982;BME280;57319;56.274;43.980;2024-01-25T04:06:48;98956.28;;;-4.57;nan
69982;BME280;57319;56.274;43.980;2024-01-25T04:09:14;98947.31;;;-4.50;nan
69982;BME280;57319;56.274;43.980;2024-01-25T04:11:40;98948.34;;;-4.45;nan
69982;BME280;57319;56.274;43.980;2024-01-25T04:14:06;98943.50;;;-4.63;nan
69982;BME280;57319;56.274;43.980;2024-01-25T04:16:32;98943.34;;;-4.68;nan
69982;BME280;57319;56.274;43.980;2024-01-25T04:18:58;98941.91;;;-4.61;nan
69982;BME280;57319;56.274;43.980;2024-01-25T04:21:24;98945.78;;;-4.71;nan
69982;BME280;57319;56.274;43.980;2024-01-25T04:23:50;98937.06;;;-4.81;nan
69982;BME280;57319;56.274;43.980;2024-01-25T04:26:15;98933.56;;;-4.84;nan
69982;BME280;57319;56.274;43.980;2024-01-25T04:28:44;98948.22;;;-4.72;nan
69982;BME280;57319;56.274;43.980;2024-01-25T04:31:10;98938.19;;;-4.72;nan
69982;BME280;57319;56.274;43.980;2024-01-25T04:33:37;98937.44;;;-4.70;nan
69982;BME280;57319;56.274;43.980;2024-01-25T04:36:03;98936.09;;;-4.60;nan
69982;BME280;57319;56.274;43.980;2024-01-25T04:38:29;98938.50;;;-4.87;nan
69982;BME280;57319;56.274;43.980;2024-01-25T04:40:55;98939.06;;;-4.70;nan
69982;BME280;57319;56.274;43.980;2024-01-25T04:43:20;98948.69;;;-4.83;nan
69982;BME280;57319;56.274;43.980;2024-01-25T04:45:46;98948.81;;;-4.55;nan
69982;BME280;57319;56.274;43.980;2024-01-25T04:48:12;98951.00;;;-4.65;nan
69982;BME280;57319;56.274;43.980;2024-01-25T04:50:37;98957.88;;;-4.59;nan
69982;BME280;57319;56.274;43.980;2024-01-25T04:53:04;98947.28;;;-4.52;nan
69982;BME280;57319;56.274;43.980;2024-01-25T04:55:30;98953.06;;;-4.77;nan
69982;BME280;57319;56.274;43.980;2024-01-25T04:57:56;98948.91;;;-4.77;nan
69982;BME280;57319;56.274;43.980;2024-01-25T05:00:22;98957.13;;;-4.56;nan
69982;BME280;57319;56.274;43.980;2024-01-25T05:02:48;98956.63;;;-4.48;nan
69982;BME280;57319;56.274;43.980;2024-01-25T05:05:15;98945.59;;;-4.51;nan
69982;BME280;57319;56.274;43.980;2024-01-25T05:07:41;98950.00;;;-4.70;nan
69982;BME280;57319;56.274;43.980;2024-01-25T05:10:07;98956.13;;;-4.86;nan
69982;BME280;57319;56.274;43.980;2024-01-25T05:12:33;98959.97;;;-4.71;nan
69982;BME280;57319;56.274;43.980;2024-01-25T05:14:59;98950.53;;;-4.54;nan
69982;BME280;57319;56.274;43.980;2024-01-25T05:17:24;98952.94;;;-4.57;nan
69982;BME280;57319;56.274;43.980;2024-01-25T05:19:50;98946.44;;;-4.51;nan
69982;BME280;57319;56.274;43.980;2024-01-25T05:22:16;98941.69;;;-4.43;nan
69982;BME280;57319;56.274;43.980;2024-01-25T05:24:42;98946.81;;;-4.40;nan
69982;BME280;57319;56.274;43.980;2024-01-25T05:27:08;98947.84;;;-4.35;nan
69982;BME280;57319;56.274;43.980;2024-01-25T05:29:33;98946.34;;;-4.30;nan
69982;BME280;57319;56.274;43.980;2024-01-25T05:31:59;98947.19;;;-4.29;nan
69982;BME280;57319;56.274;43.980;2024-01-25T05:34:25;98945.22;;;-4.38;nan
69982;BME280;57319;56.274;43.980;2024-01-25T05:36:50;98944.16;;;-4.20;nan
69982;BME280;57319;56.274;43.980;2024-01-25T05:39:16;98951.56;;;-4.23;nan
69982;BME280;57319;56.274;43.980;2024-01-25T05:41:42;98947.03;;;-4.34;nan
69982;BME280;57319;56.274;43.980;2024-01-25T05:44:12;98951.47;;;-4.27;nan
69982;BME280;57319;56.274;43.980;2024-01-25T05:46:37;98945.31;;;-4.35;nan
69982;BME280;57319;56.274;43.980;2024-01-25T05:49:03;98956.88;;;-4.40;nan
69982;BME280;57319;56.274;43.980;2024-01-25T05:51:29;98960.91;;;-4.45;nan
69982;BME280;57319;56.274;43.980;2024-01-25T05:53:54;98962.91;;;-4.35;nan
69982;BME280;57319;56.274;43.980;2024-01-25T05:56:20;98962.44;;;-4.24;nan
69982;BME280;57319;56.274;43.980;2024-01-25T05:58:46;98962.97;;;-4.33;nan
69982;BME280;57319;56.274;43.980;2024-01-25T06:01:11;98969.56;;;-4.37;nan
69982;BME280;57319;56.274;43.980;2024-01-25T06:03:37;98969.78;;;-4.29;nan
69982;BME280;57319;56.274;43.980;2024-01-25T06:06:03;98957.88;;;-4.35;nan
69982;BME280;57319;56.274;43.980;2024-01-25T06:08:28;98964.25;;;-4.45;nan
69982;BME280;57319;56.274;43.980;2024-01-25T06:10:54;98962.22;;;-4.31;nan
69982;BME280;57319;56.274;43.980;2024-01-25T06:13:19;98955.50;;;-4.30;nan
69982;BME280;57319;56.274;43.980;2024-01-25T06:15:45;98957.19;;;-4.31;nan
69982;BME280;57319;56.274;43.980;2024-01-25T06:18:11;98959.97;;;-4.23;nan
69982;BME280;57319;56.274;43.980;2024-01-25T06:20:36;98969.41;;;-4.16;nan
69982;BME280;57319;56.274;43.980;2024-01-25T06:23:02;98963.75;;;-4.10;nan
69982;BME280;57319;56.274;43.980;2024-01-25T06:25:28;98978.44;;;-4.21;nan
69982;BME280;57319;56.274;43.980;2024-01-25T06:27:59;98966.91;;;-4.16;nan
69982;BME280;57319;56.274;43.980;2024-01-25T06:30:25;98970.47;;;-4.09;nan
69982;BME280;57319;56.274;43.980;2024-01-25T06:32:51;98964.13;;;-3.98;nan
69982;BME280;57319;56.274;43.980;2024-01-25T06:35:17;98970.63;;;-4.04;nan
69982;BME280;57319;56.274;43.980;2024-01-25T06:37:42;98977.56;;;-3.97;nan
69982;BME280;57319;56.274;43.980;2024-01-25T06:40:08;98971.28;;;-4.10;nan
69982;BME280;57319;56.274;43.980;2024-01-25T06:42:34;98971.25;;;-4.36;nan
69982;BME280;57319;56.274;43.980;2024-01-25T06:44:59;98970.16;;;-4.18;nan
69982;BME280;57319;56.274;43.980;2024-01-25T06:47:25;98964.00;;;-4.02;nan
69982;BME280;57319;56.274;43.980;2024-01-25T06:49:51;98967.72;;;-3.91;nan
69982;BME280;57319;56.274;43.980;2024-01-25T06:52:18;98964.88;;;-4.00;nan
69982;BME280;57319;56.274;43.980;2024-01-25T06:54:44;98976.22;;;-3.87;nan
69982;BME280;57319;56.274;43.980;2024-01-25T06:57:10;98969.31;;;-4.43;nan
69982;BME280;57319;56.274;43.980;2024-01-25T06:59:35;98970.91;;;-4.21;nan
69982;BME280;57319;56.274;43.980;2024-01-25T07:02:01;98969.31;;;-4.19;nan
69982;BME280;57319;56.274;43.980;2024-01-25T07:04:29;98975.00;;;-4.24;nan
69982;BME280;57319;56.274;43.980;2024-01-25T07:06:55;98974.75;;;-4.06;nan
69982;BME280;57319;56.274;43.980;2024-01-25T07:09:21;98973.72;;;-3.87;nan
69982;BME280;57319;56.274;43.980;2024-01-25T07:11:46;98979.22;;;-3.98;nan
69982;BME280;57319;56.274;43.980;2024-01-25T07:14:12;98982.72;;;-3.94;nan
69982;BME280;57319;56.274;43.980;2024-01-25T07:16:38;98969.44;;;-3.90;nan
69982;BME280;57319;56.274;43.980;2024-01-25T07:19:03;98977.03;;;-3.88;nan
69982;BME280;57319;56.274;43.980;2024-01-25T07:21:30;98974.09;;;-4.01;nan
69982;BME280;57319;56.274;43.980;2024-01-25T07:24:00;98971.94;;;-3.90;nan
69982;BME280;57319;56.274;43.980;2024-01-25T07:26:26;98972.03;;;-3.87;nan
69982;BME280;57319;56.274;43.980;2024-01-25T07:28:52;98976.13;;;-4.16;nan
69982;BME280;57319;56.274;43.980;2024-01-25T07:31:27;98973.75;;;-3.86;nan
69982;BME280;57319;56.274;43.980;2024-01-25T07:33:53;98984.75;;;-3.82;nan
69982;BME280;57319;56.274;43.980;2024-01-25T07:36:20;98984.53;;;-3.90;nan
69982;BME280;57319;56.274;43.980;2024-01-25T07:38:46;98980.63;;;-4.06;nan
69982;BME280;57319;56.274;43.980;2024-01-25T07:41:15;98982.69;;;-4.44;nan
69982;BME280;57319;56.274;43.980;2024-01-25T07:43:41;98976.81;;;-4.20;nan
69982;BME280;57319;56.274;43.980;2024-01-25T07:46:06;98982.72;;;-3.94;nan
69982;BME280;57319;56.274;43.980;2024-01-25T07:48:33;98981.69;;;-3.99;nan
69982;BME280;57319;56.274;43.980;2024-01-25T07:50:58;98971.38;;;-3.81;nan
69982;BME280;57319;56.274;43.980;2024-01-25T07:53:24;98970.94;;;-3.69;nan
69982;BME280;57319;56.274;43.980;2024-01-25T07:55:50;98986.94;;;-3.66;nan
69982;BME280;57319;56.274;43.980;2024-01-25T07:58:16;98984.38;;;-3.67;nan
69982;BME280;57319;56.274;43.980;2024-01-25T08:00:42;98987.44;;;-3.78;nan
69982;BME280;57319;56.274;43.980;2024-01-25T08:03:11;98984.66;;;-3.85;nan
69982;BME280;57319;56.274;43.980;2024-01-25T08:05:37;98982.94;;;-3.86;nan
69982;BME280;57319;56.274;43.980;2024-01-25T08:08:02;98975.56;;;-3.82;nan
69982;BME280;57319;56.274;43.980;2024-01-25T08:10:28;98985.72;;;-3.79;nan
69982;BME280;57319;56.274;43.980;2024-01-25T08:12:54;98983.28;;;-4.01;nan
69982;BME280;57319;56.274;43.980;2024-01-25T08:15:20;98981.25;;;-3.60;nan
69982;BME280;57319;56.274;43.980;2024-01-25T08:17:45;98971.69;;;-3.72;nan
69982;BME280;57319;56.274;43.980;2024-01-25T08:20:11;98979.84;;;-4.05;nan
69982;BME280;57319;56.274;43.980;2024-01-25T08:22:40;98980.28;;;-3.65;nan
69982;BME280;57319;56.274;43.980;2024-01-25T08:25:07;98969.22;;;-3.70;nan
69982;BME280;57319;56.274;43.980;2024-01-25T08:27:33;98976.47;;;-3.52;nan
69982;BME280;57319;56.274;43.980;2024-01-25T08:29:59;98983.84;;;-3.84;nan
69982;BME280;57319;56.274;43.980;2024-01-25T08:32:25;98975.47;;;-4.11;nan
69982;BME280;57319;56.274;43.980;2024-01-25T08:34:51;98973.72;;;-3.87;nan
69982;BME280;57319;56.274;43.980;2024-01-25T08:37:16;98978.22;;;-3.77;nan
69982;BME280;57319;56.274;43.980;2024-01-25T08:39:42;98978.16;;;-3.53;nan
69982;BME280;57319;56.274;43.980;2024-01-25T08:42:08;98974.28;;;-3.42;nan
69982;BME280;57319;56.274;43.980;2024-01-25T08:44:34;98983.53;;;-3.42;nan
69982;BME280;57319;56.274;43.980;2024-01-25T08:47:00;98974.34;;;-3.40;nan
69982;BME280;57319;56.274;43.980;2024-01-25T08:49:25;98982.09;;;-3.34;nan
69982;BME280;57319;56.274;43.980;2024-01-25T08:51:51;98980.84;;;-3.47;nan
69982;BME280;57319;56.274;43.980;2024-01-25T08:54:17;98980.72;;;-3.51;nan
69982;BME280;57319;56.274;43.980;2024-01-25T08:56:42;98978.09;;;-3.54;nan
69982;BME280;57319;56.274;43.980;2024-01-25T08:59:08;98970.03;;;-3.44;nan
69982;BME280;57319;56.274;43.980;2024-01-25T09:01:34;98975.97;;;-3.69;nan
69982;BME280;57319;56.274;43.980;2024-01-25T09:03:59;98981.91;;;-3.66;nan
69982;BME280;57319;56.274;43.980;2024-01-25T09:06:29;98985.66;;;-3.80;nan
69982;BME280;57319;56.274;43.980;2024-01-25T09:08:55;98978.97;;;-4.05;nan
69982;BME280;57319;56.274;43.980;2024-01-25T09:11:21;98979.84;;;-4.29;nan
69982;BME280;57319;56.274;43.980;2024-01-25T09:13:47;98971.19;;;-4.13;nan
69982;BME280;57319;56.274;43.980;2024-01-25T09:16:14;98976.22;;;-4.13;nan
69982;BME280;57319;56.274;43.980;2024-01-25T09:18:39;98976.00;;;-3.68;nan
69982;BME280;57319;56.274;43.980;2024-01-25T09:21:05;98980.38;;;-3.62;nan
69982;BME280;57319;56.274;43.980;2024-01-25T09:23:31;98976.56;;;-3.49;nan
69982;BME280;57319;56.274;43.980;2024-01-25T09:25:57;98985.00;;;-3.49;nan
69982;BME280;57319;56.274;43.980;2024-01-25T09:28:22;98977.47;;;-3.47;nan
69982;BME280;57319;56.274;43.980;2024-01-25T09:30:48;98975.97;;;-3.42;nan
69982;BME280;57319;56.274;43.980;2024-01-25T09:33:14;98979.31;;;-3.42;nan
69982;BME280;57319;56.274;43.980;2024-01-25T09:35:40;98977.34;;;-3.23;nan
69982;BME280;57319;56.274;43.980;2024-01-25T09:38:06;98982.00;;;-3.35;nan
69982;BME280;57319;56.274;43.980;2024-01-25T09:40:32;98986.66;;;-3.20;nan
69982;BME280;57319;56.274;43.980;2024-01-25T09:42:59;98979.16;;;-3.19;nan
69982;BME280;57319;56.274;43.980;2024-01-25T09:45:25;98971.56;;;-3.20;nan
69982;BME280;57319;56.274;43.980;2024-01-25T09:47:51;98973.25;;;-3.21;nan
69982;BME280;57319;56.274;43.980;2024-01-25T09:50:17;98975.13;;;-3.41;nan
69982;BME280;57319;56.274;43.980;2024-01-25T09:52:43;98981.38;;;-3.30;nan
69982;BME280;57319;56.274;43.980;2024-01-25T09:55:12;98987.00;;;-3.64;nan
69982;BME280;57319;56.274;43.980;2024-01-25T09:57:45;98976.06;;;-3.39;nan
69982;BME280;57319;56.274;43.980;2024-01-25T10:00:14;98971.34;;;-3.28;nan
69982;BME280;57319;56.274;43.980;2024-01-25T10:02:41;98979.84;;;-3.25;nan
69982;BME280;57319;56.274;43.980;2024-01-25T10:05:07;98980.75;;;-3.22;nan
69982;BME280;57319;56.274;43.980;2024-01-25T10:07:40;98975.06;;;-3.15;nan
69982;BME280;57319;56.274;43.980;2024-01-25T10:10:07;98980.84;;;-3.19;nan
69982;BME280;57319;56.274;43.980;2024-01-25T10:12:33;98973.19;;;-3.22;nan
69982;BME280;57319;56.274;43.980;2024-01-25T10:14:58;98977.31;;;-3.25;nan
69982;BME280;57319;56.274;43.980;2024-01-25T10:17:25;98981.84;;;-3.42;nan
69982;BME280;57319;56.274;43.980;2024-01-25T10:19:51;98975.75;;;-3.21;nan
69982;BME280;57319;56.274;43.980;2024-01-25T10:22:17;98976.56;;;-3.22;nan
69982;BME280;57319;56.274;43.980;2024-01-25T10:24:43;98978.41;;;-3.16;nan
69982;BME280;57319;56.274;43.980;2024-01-25T10:27:09;98981.00;;;-3.42;nan
69982;BME280;57319;56.274;43.980;2024-01-25T10:29:34;98966.88;;;-3.37;nan
69982;BME280;57319;56.274;43.980;2024-01-25T10:32:02;98968.38;;;-3.15;nan
69982;BME280;57319;56.274;43.980;2024-01-25T10:34:28;98974.78;;;-3.25;nan
69982;BME280;57319;56.274;43.980;2024-01-25T10:36:55;98976.00;;;-3.13;nan
69982;BME280;57319;56.274;43.980;2024-01-25T10:39:21;98972.56;;;-3.15;nan
69982;BME280;57319;56.274;43.980;2024-01-25T10:41:47;98976.72;;;-3.17;nan
69982;BME280;57319;56.274;43.980;2024-01-25T10:44:19;98980.66;;;-3.26;nan
69982;BME280;57319;56.274;43.980;2024-01-25T10:46:48;98982.63;;;-3.15;nan
69982;BME280;57319;56.274;43.980;2024-01-25T10:49:14;98971.47;;;-3.24;nan
69982;BME280;57319;56.274;43.980;2024-01-25T10:51:41;98970.34;;;-3.33;nan
69982;BME280;57319;56.274;43.980;2024-01-25T10:54:08;98969.63;;;-3.29;nan
69982;BME280;57319;56.274;43.980;2024-01-25T10:56:38;98967.41;;;-3.20;nan
69982;BME280;57319;56.274;43.980;2024-01-25T10:59:04;98971.22;;;-3.31;nan
69982;BME280;57319;56.274;43.980;2024-01-25T11:01:30;98973.66;;;-3.34;nan
69982;BME280;57319;56.274;43.980;2024-01-25T11:03:55;98974.00;;;-3.24;nan
69982;BME280;57319;56.274;43.980;2024-01-25T11:06:22;98981.16;;;-3.36;nan
69982;BME280;57319;56.274;43.980;2024-01-25T11:08:48;98985.00;;;-3.49;nan
69982;BME280;57319;56.274;43.980;2024-01-25T11:11:14;98988.69;;;-3.37;nan
69982;BME280;57319;56.274;43.980;2024-01-25T11:13:42;98983.91;;;-3.30;nan
69982;BME280;57319;56.274;43.980;2024-01-25T11:16:32;98980.34;;;-3.36;nan
69982;BME280;57319;56.274;43.980;2024-01-25T11:19:00;98979.47;;;-3.37;nan
69982;BME280;57319;56.274;43.980;2024-01-25T11:21:49;98980.16;;;-3.41;nan
69982;BME280;57319;56.274;43.980;2024-01-25T11:24:23;98984.03;;;-3.78;nan
69982;BME280;57319;56.274;43.980;2024-01-25T11:26:50;98985.31;;;-3.65;nan
69982;BME280;57319;56.274;43.980;2024-01-25T11:29:17;98993.38;;;-3.48;nan
69982;BME280;57319;56.274;43.980;2024-01-25T11:31:44;98989.75;;;-3.56;nan
69982;BME280;57319;56.274;43.980;2024-01-25T11:34:11;98992.47;;;-3.78;nan
69982;BME280;57319;56.274;43.980;2024-01-25T11:36:37;98996.78;;;-3.73;nan
69982;BME280;57319;56.274;43.980;2024-01-25T11:39:04;99000.09;;;-3.75;nan
69982;BME280;57319;56.274;43.980;2024-01-25T11:41:31;99002.97;;;-3.89;nan
69982;BME280;57319;56.274;43.980;2024-01-25T11:43:57;98999.97;;;-3.79;nan
69982;BME280;57319;56.274;43.980;2024-01-25T11:46:24;99004.59;;;-3.64;nan
69982;BME280;57319;56.274;43.980;2024-01-25T11:48:50;99006.50;;;-3.59;nan
69982;BME280;57319;56.274;43.980;2024-01-25T11:51:16;99005.56;;;-3.61;nan
69982;BME280;57319;56.274;43.980;2024-01-25T11:53:41;99002.03;;;-3.66;nan
69982;BME280;57319;56.274;43.980;2024-01-25T11:56:13;99003.84;;;-3.62;nan
69982;BME280;57319;56.274;43.980;2024-01-25T11:58:43;98996.91;;;-3.69;nan
69982;BME280;57319;56.274;43.980;2024-01-25T12:01:11;99009.00;;;-3.84;nan
69982;BME280;57319;56.274;43.980;2024-01-25T12:03:38;99004.78;;;-3.60;nan
69982;BME280;57319;56.274;43.980;2024-01-25T12:06:04;99010.69;;;-3.58;nan
69982;BME280;57319;56.274;43.980;2024-01-25T12:08:32;99003.47;;;-3.74;nan
69982;BME280;57319;56.274;43.980;2024-01-25T12:11:03;99006.97;;;-3.69;nan
69982;BME280;57319;56.274;43.980;2024-01-25T12:13:34;99004.91;;;-3.81;nan
69982;BME280;57319;56.274;43.980;2024-01-25T12:16:00;99006.38;;;-4.13;nan
69982;BME280;57319;56.274;43.980;2024-01-25T12:18:28;98996.47;;;-4.09;nan
69982;BME280;57319;56.274;43.980;2024-01-25T12:20:54;99005.53;;;-3.88;nan
69982;BME280;57319;56.274;43.980;2024-01-25T12:23:20;99003.25;;;-4.06;nan
69982;BME280;57319;56.274;43.980;2024-01-25T12:25:45;99005.75;;;-3.82;nan
69982;BME280;57319;56.274;43.980;2024-01-25T12:28:11;99014.75;;;-3.88;nan
69982;BME280;57319;56.274;43.980;2024-01-25T12:30:37;99005.78;;;-3.80;nan
69982;BME280;57319;56.274;43.980;2024-01-25T12:33:03;99015.03;;;-4.05;nan
69982;BME280;57319;56.274;43.980;2024-01-25T12:35:29;99009.53;;;-3.93;nan
69982;BME280;57319;56.274;43.980;2024-01-25T12:37:54;99011.44;;;-3.87;nan
69982;BME280;57319;56.274;43.980;2024-01-25T12:40:20;99018.78;;;-3.92;nan
69982;BME280;57319;56.274;43.980;2024-01-25T12:42:46;99011.44;;;-3.87;nan
69982;BME280;57319;56.274;43.980;2024-01-25T12:45:11;99012.38;;;-4.34;nan
69982;BME280;57319;56.274;43.980;2024-01-25T12:47:37;99011.22;;;-3.94;nan
69982;BME280;57319;56.274;43.980;2024-01-25T12:50:03;99006.50;;;-3.84;nan
69982;BME280;57319;56.274;43.980;2024-01-25T12:52:30;99013.03;;;-4.14;nan
69982;BME280;57319;56.274;43.980;2024-01-25T12:54:56;99013.00;;;-4.15;nan
69982;BME280;57319;56.274;43.980;2024-01-25T12:57:21;99011.81;;;-4.01;nan
69982;BME280;57319;56.274;43.980;2024-01-25T12:59:47;99009.63;;;-4.40;nan
69982;BME280;57319;56.274;43.980;2024-01-25T13:02:13;99012.56;;;-4.28;nan
69982;BME280;57319;56.274;43.980;2024-01-25T13:04:38;99015.13;;;-4.26;nan